Time;durP1;ratioP1;P1;durP2;ratioP2;P2;SDS_P1;SDS_P2;PMS_P1;PMS_P2;Temp;Humidity;BMP_temperature;BMP_pressure;BME280_temperature;BME280_humidity;BME280_pressure;Samples;Min_cycle;Max_cycle;Signal;HPM_P1;HPM_P2
2022/04/25 00:02:25;;;;;;;10.93;3.63;;;;;;;;;;5046423;28;20045;-90
2022/04/25 00:04:53;;;;;;;6.65;3.72;;;;;;;;;;5056066;28;20052;-90
2022/04/25 00:07:21;;;;;;;7.88;3.85;;;;;;;;;;5036138;28;20076;-90
2022/04/25 00:09:49;;;;;;;10.88;3.97;;;;;;;;;;5020020;28;20053;-89
2022/04/25 00:12:17;;;;;;;12.45;3.60;;;;;;;;;;5038307;28;20481;-90
2022/04/25 00:14:45;;;;;;;7.57;3.72;;;;;;;;;;5022882;28;20048;-89
2022/04/25 00:17:13;;;;;;;8.90;3.60;;;;;;;;;;5020798;28;20053;-89
2022/04/25 00:19:41;;;;;;;7.43;3.65;;;;;;;;;;5040937;28;20041;-90
2022/04/25 00:22:10;;;;;;;11.77;3.65;;;;;;;;;;5016896;28;20052;-89
2022/04/25 00:24:39;;;;;;;11.15;4.00;;;;;;;;;;5029987;28;20069;-89
2022/04/25 00:27:09;;;;;;;11.73;4.38;;;;;;;;;;5017142;28;20046;-90
2022/04/25 00:29:37;;;;;;;11.68;3.83;;;;;;;;;;5030161;28;20138;-90
2022/04/25 00:32:07;;;;;;;9.38;3.53;;;;;;;;;;5029945;28;20083;-90
2022/04/25 00:34:36;;;;;;;6.03;3.28;;;;;;;;;;5026262;28;20182;-89
2022/04/25 00:37:03;;;;;;;5.40;3.30;;;;;;;;;;5049846;28;20161;-90
2022/04/25 00:39:32;;;;;;;7.70;3.20;;;;;;;;;;5018485;28;20060;-90
2022/04/25 00:41:59;;;;;;;11.02;3.40;;;;;;;;;;5062645;28;20038;-90
2022/04/25 00:44:27;;;;;;;7.07;3.30;;;;;;;;;;5036134;28;20065;-89
2022/04/25 00:46:56;;;;;;;6.28;2.95;;;;;;;;;;5052748;28;20048;-90
2022/04/25 00:49:23;;;;;;;9.18;3.20;;;;;;;;;;5018918;28;20137;-90
2022/04/25 00:51:54;;;;;;;6.22;2.72;;;;;;;;;;5016661;28;20045;-89
2022/04/25 00:54:21;;;;;;;7.70;3.20;;;;;;;;;;5014706;28;20050;-90
2022/04/25 00:56:49;;;;;;;11.88;4.13;;;;;;;;;;5051544;28;20083;-89
2022/04/25 00:59:21;;;;;;;6.38;3.25;;;;;;;;;;5050158;28;20037;-89
2022/04/25 01:01:51;;;;;;;6.18;2.78;;;;;;;;;;5021476;28;20091;-89
2022/04/25 01:04:20;;;;;;;6.28;2.65;;;;;;;;;;5042423;28;20094;-89
2022/04/25 01:06:49;;;;;;;6.47;2.85;;;;;;;;;;5033905;28;20052;-89
2022/04/25 01:09:17;;;;;;;7.95;3.55;;;;;;;;;;5019531;28;20049;-89
2022/04/25 01:11:45;;;;;;;6.40;2.85;;;;;;;;;;5034807;28;20047;-89
2022/04/25 01:14:16;;;;;;;7.05;3.22;;;;;;;;;;5047016;28;20105;-89
2022/04/25 01:16:45;;;;;;;8.93;3.80;;;;;;;;;;5036989;28;20053;-90
2022/04/25 01:19:13;;;;;;;6.60;2.67;;;;;;;;;;5034111;28;20037;-90
2022/04/25 01:21:52;;;;;;;7.50;2.70;;;;;;;;;;5041474;28;20110;-90
2022/04/25 01:27:18;;;;;;;6.65;2.60;;;;;;;;;;5049645;28;20081;-89
2022/04/25 01:30:03;;;;;;;6.28;2.85;;;;;;;;;;5022156;28;20137;-89
2022/04/25 01:32:31;;;;;;;6.38;2.60;;;;;;;;;;5011867;28;20133;-89
2022/04/25 01:34:59;;;;;;;8.25;2.90;;;;;;;;;;5004882;28;20061;-89
2022/04/25 01:37:29;;;;;;;11.20;3.03;;;;;;;;;;5045040;28;20107;-90
2022/04/25 01:39:57;;;;;;;10.93;2.78;;;;;;;;;;5029478;28;20052;-89
2022/04/25 01:42:25;;;;;;;9.88;2.70;;;;;;;;;;5029193;28;20661;-90
2022/04/25 01:44:56;;;;;;;10.35;2.97;;;;;;;;;;5021960;28;20029;-89
2022/04/25 01:47:24;;;;;;;9.60;3.47;;;;;;;;;;5022379;28;20071;-89
2022/04/25 01:49:51;;;;;;;6.20;2.95;;;;;;;;;;5022883;28;20072;-89
2022/04/25 01:52:31;;;;;;;7.07;2.50;;;;;;;;;;5055279;28;20464;-89
2022/04/25 01:55:01;;;;;;;5.60;2.42;;;;;;;;;;5014750;28;20042;-89
2022/04/25 01:57:30;;;;;;;8.18;3.03;;;;;;;;;;5025465;28;20413;-89
2022/04/25 01:59:57;;;;;;;5.82;2.65;;;;;;;;;;5030687;28;20065;-89
2022/04/25 02:02:26;;;;;;;5.88;2.35;;;;;;;;;;5022173;28;20045;-89
2022/04/25 02:04:53;;;;;;;6.88;2.40;;;;;;;;;;5036949;28;20075;-89
2022/04/25 02:07:21;;;;;;;5.45;2.38;;;;;;;;;;5035446;28;20460;-89
2022/04/25 02:09:49;;;;;;;5.88;2.45;;;;;;;;;;5020066;28;20132;-89
2022/04/25 02:12:17;;;;;;;4.97;2.53;;;;;;;;;;5023394;28;20124;-89
2022/04/25 02:14:48;;;;;;;9.60;2.63;;;;;;;;;;5033946;28;20057;-89
2022/04/25 02:17:16;;;;;;;6.32;2.70;;;;;;;;;;5056474;28;20045;-89
2022/04/25 02:19:44;;;;;;;9.55;2.63;;;;;;;;;;5031562;28;20041;-89
2022/04/25 02:22:14;;;;;;;5.28;2.33;;;;;;;;;;5027326;28;20099;-89
2022/04/25 02:24:41;;;;;;;6.13;2.60;;;;;;;;;;5037270;28;20060;-89
2022/04/25 02:27:10;;;;;;;6.32;2.42;;;;;;;;;;5024069;28;20501;-89
2022/04/25 02:29:39;;;;;;;6.85;2.40;;;;;;;;;;5029362;28;20041;-89
2022/04/25 02:32:12;;;;;;;5.15;2.35;;;;;;;;;;5037180;28;20063;-89
2022/04/25 02:34:40;;;;;;;8.38;2.55;;;;;;;;;;5043386;28;20037;-89
2022/04/25 02:37:08;;;;;;;6.97;2.30;;;;;;;;;;5036305;28;20046;-89
2022/04/25 02:39:35;;;;;;;5.88;3.03;;;;;;;;;;5036070;28;20053;-89
2022/04/25 02:42:04;;;;;;;5.55;2.47;;;;;;;;;;5039994;28;20096;-89
2022/04/25 02:44:31;;;;;;;8.88;2.30;;;;;;;;;;5032269;28;20061;-89
2022/04/25 02:46:59;;;;;;;9.82;2.67;;;;;;;;;;5050876;28;20400;-89
2022/04/25 02:49:27;;;;;;;7.40;2.70;;;;;;;;;;5017676;28;20072;-89
2022/04/25 02:51:55;;;;;;;8.63;2.50;;;;;;;;;;5024010;28;20064;-89
2022/04/25 02:54:23;;;;;;;9.00;2.88;;;;;;;;;;5048230;28;20053;-89
2022/04/25 02:56:51;;;;;;;7.75;2.60;;;;;;;;;;5026953;28;20088;-89
2022/04/25 02:59:20;;;;;;;7.20;2.42;;;;;;;;;;4999390;28;20400;-89
2022/04/25 03:01:48;;;;;;;6.85;2.90;;;;;;;;;;5011542;28;20049;-89
2022/04/25 03:04:15;;;;;;;7.50;2.90;;;;;;;;;;5039820;28;20037;-89
2022/04/25 03:06:44;;;;;;;8.27;2.20;;;;;;;;;;5020365;28;20736;-89
2022/04/25 03:09:11;;;;;;;5.68;2.20;;;;;;;;;;5049651;28;20495;-89
2022/04/25 03:11:39;;;;;;;5.00;2.38;;;;;;;;;;5024924;28;20065;-89
2022/04/25 03:14:11;;;;;;;5.80;2.60;;;;;;;;;;5020067;28;20041;-89
2022/04/25 03:16:40;;;;;;;6.43;2.60;;;;;;;;;;5038871;28;20041;-89
2022/04/25 03:19:08;;;;;;;7.30;2.80;;;;;;;;;;5019910;28;20030;-89
2022/04/25 03:21:35;;;;;;;9.32;2.35;;;;;;;;;;5018724;28;20595;-89
2022/04/25 03:24:04;;;;;;;5.53;2.50;;;;;;;;;;5037119;28;20061;-89
2022/04/25 03:26:31;;;;;;;8.80;2.90;;;;;;;;;;5002485;28;20117;-90
2022/04/25 03:28:59;;;;;;;5.05;2.30;;;;;;;;;;5025033;28;20037;-89
2022/04/25 03:31:27;;;;;;;6.57;2.15;;;;;;;;;;5039150;28;20558;-89
2022/04/25 03:33:55;;;;;;;5.13;2.40;;;;;;;;;;5043343;28;20044;-89
2022/04/25 03:36:24;;;;;;;8.10;3.03;;;;;;;;;;5040174;28;20045;-89
2022/04/25 03:38:53;;;;;;;5.60;2.72;;;;;;;;;;5037997;28;20469;-89
2022/04/25 03:41:21;;;;;;;5.80;2.33;;;;;;;;;;5038475;28;20033;-89
2022/04/25 03:43:49;;;;;;;5.35;2.30;;;;;;;;;;5024105;28;20139;-89
2022/04/25 03:46:17;;;;;;;10.75;3.50;;;;;;;;;;5038299;28;20041;-89
2022/04/25 03:48:45;;;;;;;8.80;3.25;;;;;;;;;;5020898;28;20129;-89
2022/04/25 03:51:14;;;;;;;7.38;2.63;;;;;;;;;;5026697;28;20046;-88
2022/04/25 03:53:41;;;;;;;6.13;2.35;;;;;;;;;;5040048;28;20034;-89
2022/04/25 03:58:55;;;;;;;5.88;2.85;;;;;;;;;;5036099;28;20144;-89
2022/04/25 04:01:24;;;;;;;6.53;2.47;;;;;;;;;;5024027;28;20049;-89
2022/04/25 04:03:51;;;;;;;4.97;2.67;;;;;;;;;;5008553;28;20052;-89
2022/04/25 04:06:23;;;;;;;7.28;2.55;;;;;;;;;;5020665;28;20096;-89
2022/04/25 04:08:51;;;;;;;8.07;3.00;;;;;;;;;;5021403;28;20045;-89
2022/04/25 04:11:19;;;;;;;5.68;2.38;;;;;;;;;;5018212;28;20045;-89
2022/04/25 04:13:47;;;;;;;4.43;2.20;;;;;;;;;;5037158;28;20072;-89
2022/04/25 04:16:15;;;;;;;6.63;2.83;;;;;;;;;;5022298;28;20497;-89
2022/04/25 04:18:43;;;;;;;6.45;2.25;;;;;;;;;;5021027;28;20049;-89
2022/04/25 04:21:11;;;;;;;9.38;2.67;;;;;;;;;;5019309;28;20053;-89
2022/04/25 04:23:39;;;;;;;8.13;2.40;;;;;;;;;;5023469;28;20049;-89
2022/04/25 04:26:07;;;;;;;6.55;2.38;;;;;;;;;;5041792;28;20045;-89
2022/04/25 04:28:36;;;;;;;6.10;2.42;;;;;;;;;;5047619;28;20030;-89
2022/04/25 04:31:04;;;;;;;6.10;2.67;;;;;;;;;;5019950;28;20428;-89
2022/04/25 04:33:33;;;;;;;7.50;2.40;;;;;;;;;;5036020;28;20060;-89
2022/04/25 04:36:21;;;;;;;5.70;2.40;;;;;;;;;;5012382;28;20468;-89
2022/04/25 04:38:49;;;;;;;6.43;2.63;;;;;;;;;;5018774;28;20056;-89
2022/04/25 04:41:17;;;;;;;6.35;2.35;;;;;;;;;;5018554;28;20412;-89
2022/04/25 04:43:48;;;;;;;5.47;2.30;;;;;;;;;;5012332;28;20045;-88
2022/04/25 04:46:16;;;;;;;9.00;2.33;;;;;;;;;;5048899;28;20084;-89
2022/04/25 04:48:46;;;;;;;7.85;2.40;;;;;;;;;;5009652;28;20547;-90
2022/04/25 04:51:15;;;;;;;6.90;2.35;;;;;;;;;;5017481;28;20038;-89
2022/04/25 04:53:44;;;;;;;7.43;2.55;;;;;;;;;;5018269;28;20743;-89
2022/04/25 04:56:13;;;;;;;6.05;1.88;;;;;;;;;;5017373;28;20077;-89
2022/04/25 04:58:41;;;;;;;6.93;2.10;;;;;;;;;;5034813;28;20065;-89
2022/04/25 05:01:10;;;;;;;3.10;1.60;;;;;;;;;;4997866;28;20049;-89
2022/04/25 05:03:41;;;;;;;10.85;2.42;;;;;;;;;;5018379;28;20133;-89
2022/04/25 05:06:09;;;;;;;4.65;2.20;;;;;;;;;;5040490;28;20053;-89
2022/04/25 05:08:38;;;;;;;6.05;2.13;;;;;;;;;;5039097;28;20399;-89
2022/04/25 05:11:08;;;;;;;8.50;2.20;;;;;;;;;;5029838;28;20036;-89
2022/04/25 05:13:36;;;;;;;4.32;1.90;;;;;;;;;;5035819;28;20172;-90
2022/04/25 05:16:04;;;;;;;4.90;2.00;;;;;;;;;;5030151;28;20461;-89
2022/04/25 05:18:40;;;;;;;6.10;1.70;;;;;;;;;;5034195;28;20070;-89
2022/04/25 05:21:08;;;;;;;6.70;2.08;;;;;;;;;;5036543;28;20037;-89
2022/04/25 05:23:35;;;;;;;5.53;2.05;;;;;;;;;;5016643;28;20816;-90
2022/04/25 05:26:03;;;;;;;9.32;2.53;;;;;;;;;;5019575;28;20050;-88
2022/04/25 05:28:32;;;;;;;7.63;2.20;;;;;;;;;;5016546;28;20520;-89
2022/04/25 05:31:01;;;;;;;6.13;1.80;;;;;;;;;;5011145;28;20038;-89
2022/04/25 05:33:29;;;;;;;7.05;2.22;;;;;;;;;;5033880;28;20420;-90
2022/04/25 05:36:00;;;;;;;7.45;2.42;;;;;;;;;;5018609;28;20045;-92
2022/04/25 05:38:39;;;;;;;4.30;1.70;;;;;;;;;;5035088;28;20539;-90
2022/04/25 05:41:09;;;;;;;7.10;2.10;;;;;;;;;;5030526;28;20033;-89
2022/04/25 05:43:38;;;;;;;3.65;1.77;;;;;;;;;;5008557;28;20045;-89
2022/04/25 05:46:06;;;;;;;4.45;2.05;;;;;;;;;;5006866;28;20140;-89
2022/04/25 05:54:07;;;;;;;5.18;1.80;;;;;;;;;;5033202;28;20095;-90
2022/04/25 05:56:35;;;;;;;5.20;1.92;;;;;;;;;;5034475;28;20828;-90
2022/04/25 05:59:13;;;;;;;2.95;1.10;;;;;;;;;;5036710;28;20076;-92
2022/04/25 06:01:41;;;;;;;7.10;2.00;;;;;;;;;;5029767;28;20132;-91
2022/04/25 06:04:10;;;;;;;4.55;1.40;;;;;;;;;;5025653;28;20136;-91
2022/04/25 06:06:37;;;;;;;3.75;1.60;;;;;;;;;;5021250;28;20052;-91
2022/04/25 06:09:05;;;;;;;7.80;1.98;;;;;;;;;;5035485;28;20700;-90
2022/04/25 06:11:38;;;;;;;4.65;1.83;;;;;;;;;;5025694;28;20496;-90
2022/04/25 06:14:05;;;;;;;4.03;2.08;;;;;;;;;;5043920;28;20775;-90
2022/04/25 06:16:37;;;;;;;5.45;1.88;;;;;;;;;;5039014;28;20046;-90
2022/04/25 06:19:05;;;;;;;4.78;1.90;;;;;;;;;;5037657;28;20028;-91
2022/04/25 06:21:33;;;;;;;4.32;1.60;;;;;;;;;;5014494;28;20049;-90
2022/04/25 06:24:01;;;;;;;5.95;1.92;;;;;;;;;;5037431;28;20060;-90
2022/04/25 06:26:41;;;;;;;3.10;1.60;;;;;;;;;;5020958;28;20413;-90
2022/04/25 06:29:09;;;;;;;5.85;2.03;;;;;;;;;;5016556;28;20049;-90
2022/04/25 06:31:38;;;;;;;5.35;1.77;;;;;;;;;;5031022;28;20048;-90
2022/04/25 06:34:05;;;;;;;4.00;1.80;;;;;;;;;;5005562;28;20045;-90
2022/04/25 06:36:34;;;;;;;4.75;2.10;;;;;;;;;;5021054;28;20045;-90
2022/04/25 06:39:03;;;;;;;4.38;1.50;;;;;;;;;;5016812;28;20060;-90
2022/04/25 06:42:00;;;;;;;5.20;1.90;;;;;;;;;;5018197;28;20420;-90
2022/04/25 06:44:56;;;;;;;5.18;2.15;;;;;;;;;;4998534;28;20057;-90
2022/04/25 06:47:27;;;;;;;5.80;2.13;;;;;;;;;;5031171;28;20040;-90
2022/04/25 06:49:58;;;;;;;3.25;1.55;;;;;;;;;;5010554;28;20052;-90
2022/04/25 06:52:29;;;;;;;6.10;1.98;;;;;;;;;;5024519;28;20065;-90
2022/04/25 06:55:08;;;;;;;5.53;2.05;;;;;;;;;;5017816;28;20050;-90
2022/04/25 06:58:35;;;;;;;8.82;2.45;;;;;;;;;;5021519;28;20054;-90
2022/04/25 07:05:32;;;;;;;3.63;1.77;;;;;;;;;;5008779;28;20034;-90
2022/04/25 07:08:18;;;;;;;5.95;2.08;;;;;;;;;;5000990;28;20065;-90
2022/04/25 07:11:15;;;;;;;3.65;1.65;;;;;;;;;;4980168;28;20043;-90
2022/04/25 07:13:46;;;;;;;4.80;1.60;;;;;;;;;;4941156;28;20051;-90
2022/04/25 07:20:43;;;;;;;4.30;1.92;;;;;;;;;;4976529;28;20601;-90
2022/04/25 07:30:22;;;;;;;4.22;2.00;;;;;;;;;;4956072;28;20046;-90
2022/04/25 07:33:27;;;;;;;4.40;2.20;;;;;;;;;;4968899;28;20073;-90
2022/04/25 07:40:20;;;;;;;4.55;1.73;;;;;;;;;;4994882;28;20043;-90
2022/04/25 07:42:50;;;;;;;4.20;2.00;;;;;;;;;;4962811;28;20050;-90
2022/04/25 07:48:49;;;;;;;5.45;1.75;;;;;;;;;;5067524;28;20741;-82
2022/04/25 07:51:18;;;;;;;3.40;1.77;;;;;;;;;;5067255;28;20032;-82
2022/04/25 07:53:45;;;;;;;5.07;2.40;;;;;;;;;;5066354;28;20045;-82
2022/04/25 07:56:13;;;;;;;5.65;2.17;;;;;;;;;;5061294;28;20048;-82
2022/04/25 07:58:41;;;;;;;3.70;1.85;;;;;;;;;;5064900;28;20393;-84
2022/04/25 08:01:09;;;;;;;5.22;1.63;;;;;;;;;;5047777;28;20123;-85
2022/04/25 08:03:37;;;;;;;5.03;2.05;;;;;;;;;;5066287;28;20068;-84
2022/04/25 08:06:06;;;;;;;4.45;1.83;;;;;;;;;;5066175;28;20094;-84
2022/04/25 08:08:33;;;;;;;6.68;2.00;;;;;;;;;;5068282;28;20052;-84
2022/04/25 08:11:02;;;;;;;6.03;1.95;;;;;;;;;;5066779;28;20048;-85
2022/04/25 08:19:03;;;;;;;5.90;2.22;;;;;;;;;;5065047;28;20032;-84
2022/04/25 08:21:31;;;;;;;5.20;2.38;;;;;;;;;;5066609;28;20040;-84
2022/04/25 08:24:02;;;;;;;4.88;2.10;;;;;;;;;;5062789;28;20387;-84
2022/04/25 08:26:29;;;;;;;7.00;2.47;;;;;;;;;;5066574;28;20135;-84
2022/04/25 08:28:59;;;;;;;6.95;2.78;;;;;;;;;;5049291;28;20131;-84
2022/04/25 08:31:35;;;;;;;6.60;2.25;;;;;;;;;;5065093;28;20032;-84
2022/04/25 08:34:05;;;;;;;7.57;2.40;;;;;;;;;;5065178;28;20064;-85
2022/04/25 08:36:32;;;;;;;5.78;2.30;;;;;;;;;;5064509;28;20068;-84
2022/04/25 08:39:00;;;;;;;6.35;2.45;;;;;;;;;;5066228;28;20374;-85
2022/04/25 08:41:50;;;;;;;4.90;2.20;;;;;;;;;;5066377;28;20125;-85
2022/04/25 08:44:18;;;;;;;7.40;2.20;;;;;;;;;;5067036;28;20040;-84
2022/04/25 08:46:50;;;;;;;6.80;2.70;;;;;;;;;;5063921;28;20036;-85
2022/04/25 08:49:19;;;;;;;5.68;2.53;;;;;;;;;;5068711;28;20106;-85
2022/04/25 08:51:47;;;;;;;5.68;2.50;;;;;;;;;;5065789;28;20048;-85
2022/04/25 08:54:14;;;;;;;5.43;2.50;;;;;;;;;;5065544;28;20044;-85
2022/04/25 08:56:42;;;;;;;6.47;2.70;;;;;;;;;;5044250;28;20059;-86
2022/04/25 08:59:10;;;;;;;7.85;2.47;;;;;;;;;;5067628;28;20048;-85
2022/04/25 09:01:40;;;;;;;4.50;2.40;;;;;;;;;;5065696;28;20045;-84
2022/04/25 09:04:07;;;;;;;4.35;2.28;;;;;;;;;;5066682;28;20060;-84
2022/04/25 09:06:35;;;;;;;7.05;2.25;;;;;;;;;;5062008;28;20044;-85
2022/04/25 09:09:03;;;;;;;5.40;2.58;;;;;;;;;;5063760;28;20090;-85
2022/04/25 09:14:17;;;;;;;6.85;2.38;;;;;;;;;;5063145;28;20053;-85
2022/04/25 09:16:45;;;;;;;5.43;2.30;;;;;;;;;;5062880;28;20103;-85
2022/04/25 09:19:14;;;;;;;4.80;2.40;;;;;;;;;;5064251;28;20047;-85
2022/04/25 09:21:43;;;;;;;8.43;2.15;;;;;;;;;;5065482;28;20036;-85
2022/04/25 09:24:24;;;;;;;4.03;2.15;;;;;;;;;;5062221;28;20043;-85
2022/04/25 09:26:53;;;;;;;7.07;2.55;;;;;;;;;;5048695;28;20048;-85
2022/04/25 09:29:26;;;;;;;5.00;2.38;;;;;;;;;;5065724;28;20516;-85
2022/04/25 09:31:53;;;;;;;5.85;2.22;;;;;;;;;;5062399;28;20052;-85
2022/04/25 09:34:59;;;;;;;5.57;2.17;;;;;;;;;;5062961;28;20044;-85
2022/04/25 09:37:09;;;;;;;4.63;2.30;;;;;;;;;;5066989;28;20040;-85
2022/04/25 09:39:37;;;;;;;5.88;2.45;;;;;;;;;;5066227;28;20118;-85
2022/04/25 09:42:06;;;;;;;7.50;2.22;;;;;;;;;;5062445;28;20078;-85
2022/04/25 09:44:58;;;;;;;4.30;2.13;;;;;;;;;;5050249;28;20565;-85
2022/04/25 09:47:37;;;;;;;4.82;1.83;;;;;;;;;;5064866;28;20037;-85
2022/04/25 09:50:05;;;;;;;5.85;2.03;;;;;;;;;;5065738;28;20046;-85
2022/04/25 09:52:35;;;;;;;5.28;2.10;;;;;;;;;;5066905;28;20032;-85
2022/04/25 09:55:15;;;;;;;4.78;1.98;;;;;;;;;;5064623;28;20385;-85
2022/04/25 09:57:48;;;;;;;4.70;1.88;;;;;;;;;;5065263;28;20068;-85
2022/04/25 10:00:36;;;;;;;3.33;1.90;;;;;;;;;;5059781;28;20053;-85
2022/04/25 10:03:07;;;;;;;5.40;2.10;;;;;;;;;;5064120;28;20772;-85
2022/04/25 10:05:40;;;;;;;5.53;2.20;;;;;;;;;;5063561;28;20440;-85
2022/04/25 10:08:09;;;;;;;5.43;1.95;;;;;;;;;;5064032;28;20036;-85
2022/04/25 10:10:49;;;;;;;7.50;2.50;;;;;;;;;;5063814;28;20037;-85
2022/04/25 10:13:18;;;;;;;3.35;1.70;;;;;;;;;;5065681;28;20033;-85
2022/04/25 10:15:46;;;;;;;4.20;1.85;;;;;;;;;;5064877;28;20067;-85
2022/04/25 10:18:14;;;;;;;4.65;2.10;;;;;;;;;;5063432;28;20041;-85
2022/04/25 10:20:44;;;;;;;2.75;1.58;;;;;;;;;;5045214;28;20032;-85
2022/04/25 10:23:13;;;;;;;4.32;2.20;;;;;;;;;;5064782;28;20102;-85
2022/04/25 10:25:50;;;;;;;4.85;2.00;;;;;;;;;;5062028;28;20106;-85
2022/04/25 10:28:45;;;;;;;4.13;1.98;;;;;;;;;;5066075;28;20048;-85
2022/04/25 10:31:27;;;;;;;5.10;2.60;;;;;;;;;;5064749;28;20044;-85
2022/04/25 10:33:58;;;;;;;3.78;1.80;;;;;;;;;;5045167;28;20047;-85
2022/04/25 10:36:37;;;;;;;5.00;2.15;;;;;;;;;;5064054;28;20424;-85
2022/04/25 10:39:27;;;;;;;3.83;1.92;;;;;;;;;;5063368;28;20596;-85
2022/04/25 10:44:44;;;;;;;4.50;2.10;;;;;;;;;;5061802;28;20044;-85
2022/04/25 10:47:16;;;;;;;4.22;1.90;;;;;;;;;;5061347;28;20084;-85
2022/04/25 10:49:46;;;;;;;6.20;1.80;;;;;;;;;;5062328;28;20854;-85
2022/04/25 10:52:42;;;;;;;6.63;2.30;;;;;;;;;;5060362;28;20075;-85
2022/04/25 10:55:23;;;;;;;4.07;1.95;;;;;;;;;;5063303;28;20037;-85
2022/04/25 10:58:07;;;;;;;4.65;1.90;;;;;;;;;;5064107;28;20132;-85
2022/04/25 11:00:39;;;;;;;3.97;1.90;;;;;;;;;;5064967;28;20062;-84
2022/04/25 11:03:14;;;;;;;5.32;1.85;;;;;;;;;;5063631;28;20040;-85
2022/04/25 11:05:44;;;;;;;5.00;2.15;;;;;;;;;;5043155;28;20060;-84
2022/04/25 11:08:24;;;;;;;4.25;1.77;;;;;;;;;;5063161;28;20052;-84
2022/04/25 11:11:01;;;;;;;3.17;1.90;;;;;;;;;;5061144;28;20553;-84
2022/04/25 11:13:35;;;;;;;3.78;2.03;;;;;;;;;;5062949;28;20406;-84
2022/04/25 11:16:15;;;;;;;4.00;1.90;;;;;;;;;;5063209;28;20052;-84
2022/04/25 11:18:45;;;;;;;4.55;1.90;;;;;;;;;;5064247;28;20259;-84
2022/04/25 11:21:16;;;;;;;3.20;1.73;;;;;;;;;;5062799;28;20127;-84
2022/04/25 11:23:43;;;;;;;3.78;1.90;;;;;;;;;;5063624;28;20045;-84
2022/04/25 11:26:36;;;;;;;7.47;2.22;;;;;;;;;;5063122;28;20823;-84
2022/04/25 11:29:08;;;;;;;3.50;2.03;;;;;;;;;;5049327;28;20150;-83
2022/04/25 11:31:38;;;;;;;4.15;2.13;;;;;;;;;;5062934;28;20032;-82
2022/04/25 11:34:11;;;;;;;5.55;2.65;;;;;;;;;;5062798;28;20036;-82
2022/04/25 11:36:43;;;;;;;5.85;2.15;;;;;;;;;;5062056;28;20131;-82
2022/04/25 11:42:06;;;;;;;3.72;2.33;;;;;;;;;;5063348;28;20111;-82
2022/04/25 11:44:38;;;;;;;5.70;2.63;;;;;;;;;;5067289;28;20104;-82
2022/04/25 11:47:06;;;;;;;4.70;2.38;;;;;;;;;;5068202;28;20112;-82
2022/04/25 11:49:37;;;;;;;3.95;2.05;;;;;;;;;;5068973;28;20465;-82
2022/04/25 11:52:06;;;;;;;3.92;1.85;;;;;;;;;;5068493;28;20509;-82
2022/04/25 11:54:33;;;;;;;6.25;2.20;;;;;;;;;;5066543;28;20037;-82
2022/04/25 11:57:02;;;;;;;7.65;2.20;;;;;;;;;;5048371;28;20892;-82
2022/04/25 11:59:29;;;;;;;4.45;1.83;;;;;;;;;;5065869;28;20465;-82
2022/04/25 12:01:57;;;;;;;3.92;2.25;;;;;;;;;;5066861;28;20037;-82
2022/04/25 12:04:27;;;;;;;5.82;2.05;;;;;;;;;;5066639;28;20086;-82
2022/04/25 12:06:58;;;;;;;4.60;1.95;;;;;;;;;;5065940;28;20040;-82
2022/04/25 12:17:52;;;;;;;3.63;2.05;;;;;;;;;;5067633;28;20044;-82
2022/04/25 12:20:31;;;;;;;4.47;2.17;;;;;;;;;;5047535;28;20040;-82
2022/04/25 12:22:59;;;;;;;3.63;2.15;;;;;;;;;;5064418;28;20135;-82
2022/04/25 12:25:29;;;;;;;5.53;2.25;;;;;;;;;;5065189;28;20048;-82
2022/04/25 12:28:07;;;;;;;3.90;2.05;;;;;;;;;;5062594;28;20071;-82
2022/04/25 12:30:47;;;;;;;3.47;1.45;;;;;;;;;;5065482;28;20041;-84
2022/04/25 12:33:18;;;;;;;4.32;2.08;;;;;;;;;;5064710;28;20033;-84
2022/04/25 12:35:46;;;;;;;4.68;2.20;;;;;;;;;;5063474;28;20040;-84
2022/04/25 12:38:37;;;;;;;5.60;2.33;;;;;;;;;;5067042;28;20454;-84
2022/04/25 12:41:06;;;;;;;4.88;2.13;;;;;;;;;;5063389;28;20127;-84
2022/04/25 12:43:55;;;;;;;5.05;1.80;;;;;;;;;;5066505;28;20051;-84
2022/04/25 12:46:36;;;;;;;4.97;2.35;;;;;;;;;;5065452;28;20115;-84
2022/04/25 12:49:14;;;;;;;4.75;1.90;;;;;;;;;;5066510;28;20057;-84
2022/04/25 12:51:41;;;;;;;4.43;1.73;;;;;;;;;;5064756;28;20946;-84
2022/04/25 12:54:22;;;;;;;2.88;1.60;;;;;;;;;;5067422;28;20143;-84
2022/04/25 12:56:52;;;;;;;4.45;2.10;;;;;;;;;;5067483;28;20478;-84
2022/04/25 12:59:27;;;;;;;3.72;2.17;;;;;;;;;;5064362;28;20504;-84
2022/04/25 13:02:17;;;;;;;4.22;2.10;;;;;;;;;;5065636;28;20064;-84
2022/04/25 13:04:55;;;;;;;5.63;2.13;;;;;;;;;;5065059;28;20043;-84
2022/04/25 13:07:28;;;;;;;4.78;1.80;;;;;;;;;;5063839;28;20142;-84
2022/04/25 13:10:00;;;;;;;4.30;2.22;;;;;;;;;;5064055;28;20048;-84
2022/04/25 13:12:36;;;;;;;4.38;2.05;;;;;;;;;;5041724;28;20045;-84
2022/04/25 13:15:05;;;;;;;3.58;2.00;;;;;;;;;;5063482;28;20495;-84
2022/04/25 13:17:36;;;;;;;5.57;2.00;;;;;;;;;;5063193;28;20150;-84
2022/04/25 13:20:05;;;;;;;3.33;2.05;;;;;;;;;;5063451;28;20052;-84
2022/04/25 13:22:33;;;;;;;4.80;2.00;;;;;;;;;;5062736;28;20033;-84
2022/04/25 13:25:04;;;;;;;4.38;2.10;;;;;;;;;;5061457;28;20032;-84
2022/04/25 13:27:32;;;;;;;3.38;2.03;;;;;;;;;;5060756;28;20122;-84
2022/04/25 13:30:00;;;;;;;3.88;2.28;;;;;;;;;;5062869;28;20041;-84
2022/04/25 13:32:27;;;;;;;4.18;1.90;;;;;;;;;;5065258;28;20411;-84
2022/04/25 13:34:55;;;;;;;6.38;2.35;;;;;;;;;;5064234;28;20059;-83
2022/04/25 13:37:23;;;;;;;4.72;1.77;;;;;;;;;;5064652;28;20068;-84
2022/04/25 13:39:52;;;;;;;3.97;2.03;;;;;;;;;;5058305;28;20217;-84
2022/04/25 13:42:19;;;;;;;3.25;1.75;;;;;;;;;;5063286;28;20131;-84
2022/04/25 13:44:47;;;;;;;4.30;2.10;;;;;;;;;;5062617;28;20392;-84
2022/04/25 13:47:15;;;;;;;3.70;1.58;;;;;;;;;;5058717;28;22158;-84
2022/04/25 13:49:43;;;;;;;5.63;1.83;;;;;;;;;;5043980;28;20032;-84
2022/04/25 13:52:11;;;;;;;3.38;2.03;;;;;;;;;;5039969;28;20136;-84
2022/04/25 13:54:40;;;;;;;4.70;1.80;;;;;;;;;;5059799;28;20044;-84
2022/04/25 13:57:11;;;;;;;17.23;2.33;;;;;;;;;;5063070;28;20041;-84
2022/04/25 13:59:47;;;;;;;5.65;1.92;;;;;;;;;;5061619;28;20095;-85
2022/04/25 14:05:02;;;;;;;4.32;1.45;;;;;;;;;;5063594;28;20040;-85
2022/04/25 14:07:30;;;;;;;3.58;1.70;;;;;;;;;;5064408;28;20060;-84
2022/04/25 14:09:57;;;;;;;3.45;1.65;;;;;;;;;;5060077;28;20032;-85
2022/04/25 14:12:25;;;;;;;4.80;1.80;;;;;;;;;;5063965;28;20369;-85
2022/04/25 14:14:53;;;;;;;5.35;1.85;;;;;;;;;;5067042;28;20036;-83
2022/04/25 14:17:22;;;;;;;4.53;1.80;;;;;;;;;;5062898;28;20040;-85
2022/04/25 14:19:49;;;;;;;4.90;2.08;;;;;;;;;;5065357;28;20478;-82
2022/04/25 14:22:17;;;;;;;3.42;1.70;;;;;;;;;;5065401;28;20167;-84
2022/04/25 14:24:45;;;;;;;7.53;1.90;;;;;;;;;;5064355;28;20044;-84
2022/04/25 14:27:13;;;;;;;2.28;1.50;;;;;;;;;;5064384;28;20040;-84
2022/04/25 14:29:42;;;;;;;2.60;1.38;;;;;;;;;;5064170;28;20047;-84
2022/04/25 14:32:09;;;;;;;2.55;1.55;;;;;;;;;;5062975;28;20108;-84
2022/04/25 14:34:37;;;;;;;3.38;1.70;;;;;;;;;;5065306;28;20131;-84
2022/04/25 14:37:05;;;;;;;4.20;1.63;;;;;;;;;;5065806;28;20604;-84
2022/04/25 14:39:39;;;;;;;4.20;1.70;;;;;;;;;;5063997;28;20045;-84
2022/04/25 14:42:08;;;;;;;2.80;1.50;;;;;;;;;;5065076;28;20033;-84
2022/04/25 14:44:37;;;;;;;3.88;2.00;;;;;;;;;;5064361;28;20076;-84
2022/04/25 14:47:07;;;;;;;3.17;2.05;;;;;;;;;;5059195;28;20044;-85
2022/04/25 14:55:08;;;;;;;2.60;1.60;;;;;;;;;;5059685;28;20044;-87
2022/04/25 14:57:35;;;;;;;3.10;1.58;;;;;;;;;;5064818;28;20106;-87
2022/04/25 15:00:05;;;;;;;3.13;1.70;;;;;;;;;;5064898;28;20041;-86
2022/04/25 15:02:34;;;;;;;3.10;1.48;;;;;;;;;;5057361;28;20055;-86
2022/04/25 15:05:04;;;;;;;2.95;1.30;;;;;;;;;;5064111;28;20048;-86
2022/04/25 15:07:31;;;;;;;4.85;1.52;;;;;;;;;;5063461;28;20044;-86
2022/04/25 15:09:59;;;;;;;4.22;1.60;;;;;;;;;;5064892;28;20550;-87
2022/04/25 15:12:27;;;;;;;2.65;1.45;;;;;;;;;;5063763;28;20064;-86
2022/04/25 15:14:57;;;;;;;2.63;1.50;;;;;;;;;;5064606;28;20040;-86
2022/04/25 15:17:25;;;;;;;4.20;1.50;;;;;;;;;;5065633;28;20101;-84
2022/04/25 15:19:53;;;;;;;3.17;1.55;;;;;;;;;;5071564;28;20033;-83
2022/04/25 15:22:21;;;;;;;3.10;1.67;;;;;;;;;;5067582;28;20032;-83
2022/04/25 15:24:50;;;;;;;3.60;1.83;;;;;;;;;;5070039;28;20039;-83
2022/04/25 15:27:19;;;;;;;4.18;1.90;;;;;;;;;;5069328;28;20039;-83
2022/04/25 15:29:47;;;;;;;3.00;1.73;;;;;;;;;;5071129;28;20039;-84
2022/04/25 15:32:15;;;;;;;6.07;1.85;;;;;;;;;;5071926;28;20032;-83
2022/04/25 15:34:47;;;;;;;3.38;1.77;;;;;;;;;;5075638;28;20099;-83
2022/04/25 15:37:16;;;;;;;3.13;1.60;;;;;;;;;;5071798;28;20050;-83
2022/04/25 15:39:51;;;;;;;4.20;1.75;;;;;;;;;;5066691;28;20037;-83
2022/04/25 15:42:19;;;;;;;3.33;1.92;;;;;;;;;;5067398;28;20381;-83
2022/04/25 15:44:47;;;;;;;3.47;1.60;;;;;;;;;;5069681;28;20044;-83
2022/04/25 15:47:15;;;;;;;3.95;1.67;;;;;;;;;;5070843;28;20041;-82
2022/04/25 15:49:43;;;;;;;3.60;1.55;;;;;;;;;;5067265;28;20424;-82
2022/04/25 15:52:11;;;;;;;2.90;1.50;;;;;;;;;;5066623;28;20063;-82
2022/04/25 15:57:44;;;;;;;3.97;1.63;;;;;;;;;;5071115;28;20141;-83
2022/04/25 16:00:14;;;;;;;18.40;5.47;;;;;;;;;;5067443;28;20051;-83
2022/04/25 16:02:41;;;;;;;4.80;2.20;;;;;;;;;;5067938;28;20056;-82
2022/04/25 16:05:10;;;;;;;3.45;1.50;;;;;;;;;;5069862;28;20040;-83
2022/04/25 16:07:37;;;;;;;5.95;1.67;;;;;;;;;;5070679;28;20040;-82
2022/04/25 16:10:07;;;;;;;4.05;1.98;;;;;;;;;;5065496;28;20068;-83
2022/04/25 16:12:33;;;;;;;5.80;1.60;;;;;;;;;;5071198;28;20071;-81
2022/04/25 16:15:02;;;;;;;3.22;1.48;;;;;;;;;;5070386;28;20409;-82